Am Express — VRGC7 — position and weather

sailwx.info

Track history (hours):
 
Tides and Currents Weather Stations Pressure Air Temp Water Temp Dewpoint Dewpoint Depression Visibility Wind Speed Wind Dir Waves Ship Positions

Am Express

Last reported at 2017-Oct-16 08:20 UTC. Time now 2017-Oct-19 23:44 UTC.
Position N 49°29' W 004°31'.

Length 222 m; draft 8.8 m.

Type: Cargo ship. MMSI: 477655300.

Date/timePositionNaut miles runAvg speedWind from/ knotsBaromVisibWave heightAir tempDewpointWater temp
2017-Oct-16 08:20N 49°29' W 004°31'411.7
2017-Oct-16 08:00N 49°31' W 004°26'711.8
2017-Oct-16 07:27N 49°34' W 004°17'511.9
2017-Oct-16 06:59N 49°36' W 004°09'611.8
2017-Oct-16 06:29N 49°39' W 004°01'611.8
2017-Oct-16 06:00N 49°42' W 003°53'611.9
2017-Oct-16 05:30N 49°44' W 003°45'611.8
2017-Oct-16 05:00N 49°47' W 003°37'611.4
2017-Oct-16 04:30N 49°49' W 003°29'611.5
2017-Oct-16 04:00N 49°52' W 003°21'611.4
2017-Oct-16 03:31N 49°54' W 003°13'611.3
2017-Oct-16 03:00N 49°57' W 003°05'611.4
2017-Oct-16 02:30N 49°59' W 002°57'612.1
2017-Oct-16 02:00N 50°00' W 002°47'612.6
2017-Oct-16 01:30N 50°02' W 002°38'713.1
2017-Oct-16 01:00N 50°04' W 002°28'713.7
2017-Oct-16 00:30N 50°05' W 002°18'714.3
2017-Oct-16 00:00N 50°07' W 002°07'714.6
2017-Oct-15 23:30N 50°09' W 001°56'3214.6
2017-Oct-15 21:20N 50°18' W 001°08'513.8
2017-Oct-15 21:00N 50°18' W 001°01'613.1
2017-Oct-15 20:31N 50°20' W 000°52'612.4
2017-Oct-15 20:00N 50°22' W 000°42'712.0
2017-Oct-15 19:25N 50°25' W 000°32'511.9
2017-Oct-15 19:01N 50°26' W 000°25'611.7
2017-Oct-15 18:30N 50°27' W 000°16'611.5
2017-Oct-15 18:00N 50°29' W 000°07'611.2
2017-Oct-15 17:30N 50°30' E 000°02'511.0
2017-Oct-15 17:00N 50°32' E 000°10'611.1
2017-Oct-15 16:30N 50°33' E 000°18'611.4
2017-Oct-15 16:00N 50°35' E 000°27'611.7
2017-Oct-15 15:30N 50°37' E 000°35'612.4
2017-Oct-15 15:00N 50°41' E 000°43'1312.8
2017-Oct-15 14:00N 50°49' E 000°59'612.8
2017-Oct-15 13:30N 50°53' E 001°06'612.6
2017-Oct-15 13:00N 50°57' E 001°14'612.3
2017-Oct-15 12:30N 51°01' E 001°21'611.9
2017-Oct-15 12:00N 51°05' E 001°29'510.9
2017-Oct-15 11:30N 51°07' E 001°37'611.9
2017-Oct-15 11:00N 51°04' E 001°45'510.4
2017-Oct-15 10:30N 51°02' E 001°53'510.1
2017-Oct-15 10:00N 51°03' E 002°01'510.4
2017-Oct-15 09:30N 51°03' E 002°09'510.3
2017-Oct-15 09:00N 51°04' E 002°17'2 4.2
2017-Oct-15 08:30N 51°03' E 002°20'0 0.1
2017-Oct-15 08:00N 51°03' E 002°20'1 1.5
2017-Oct-15 07:30N 51°03' E 002°19'0 0.5
2017-Oct-15 07:00N 51°03' E 002°19'0 0.0
2017-Oct-15 06:30N 51°03' E 002°19'0 0.0
2017-Oct-15 06:00N 51°03' E 002°19'0 0.0
2017-Oct-15 05:30N 51°03' E 002°19'0 0.0
2017-Oct-15 05:00N 51°03' E 002°19'0 0.0
2017-Oct-15 04:30N 51°03' E 002°19'0 0.0
2017-Oct-15 04:00N 51°03' E 002°19'0 0.0
2017-Oct-15 03:30N 51°03' E 002°19'0 0.0
2017-Oct-15 03:00N 51°03' E 002°19'0 0.0
2017-Oct-15 02:30N 51°03' E 002°19'0 0.0
2017-Oct-15 02:00N 51°03' E 002°19'0 0.0
2017-Oct-15 01:21N 51°03' E 002°19'0 0.0
2017-Oct-15 01:00N 51°03' E 002°19'0 0.0
2017-Oct-15 00:27N 51°03' E 002°19'0 0.0
2017-Oct-15 00:00N 51°03' E 002°19'0 0.0
2017-Oct-14 23:30N 51°03' E 002°19'0 0.0
2017-Oct-14 23:00N 51°03' E 002°19'0 0.0
2017-Oct-14 22:30N 51°03' E 002°19'0 0.0
2017-Oct-14 22:00N 51°03' E 002°19'0 0.0
2017-Oct-14 21:30N 51°03' E 002°19'0 0.0
2017-Oct-14 21:00N 51°03' E 002°19'0 0.0
2017-Oct-14 20:30N 51°03' E 002°19'0 0.0
2017-Oct-14 20:00N 51°03' E 002°19'0 0.0
2017-Oct-14 19:27N 51°03' E 002°19'0 0.0
2017-Oct-14 19:00N 51°03' E 002°19'0 0.0
2017-Oct-14 18:30N 51°03' E 002°19'0 0.0
2017-Oct-14 18:00N 51°03' E 002°19'0 0.0
2017-Oct-14 17:30N 51°03' E 002°19'0 0.0
2017-Oct-14 17:00N 51°03' E 002°19'0 0.0
2017-Oct-14 16:27N 51°03' E 002°19'0 0.0
2017-Oct-14 16:00N 51°03' E 002°19'0 0.0
2017-Oct-14 15:30N 51°03' E 002°19'0 0.0
2017-Oct-14 15:00N 51°03' E 002°19'0 0.0
2017-Oct-14 14:30N 51°03' E 002°19'0 0.0
2017-Oct-14 14:00N 51°03' E 002°19'0 0.0
2017-Oct-14 13:30N 51°03' E 002°19'0 0.0
2017-Oct-14 13:00N 51°03' E 002°19'0 0.0
2017-Oct-14 12:30N 51°03' E 002°19'0 0.0
2017-Oct-14 12:00N 51°03' E 002°19'0 0.0
2017-Oct-14 11:27N 51°03' E 002°19'0 0.0
2017-Oct-14 11:00N 51°03' E 002°19'0 0.0
2017-Oct-14 10:27N 51°03' E 002°19'0 0.0
2017-Oct-14 10:00N 51°03' E 002°19'0 0.0
2017-Oct-14 09:24N 51°03' E 002°19'0 0.0
2017-Oct-14 08:57N 51°03' E 002°19'0 0.0
2017-Oct-14 08:27N 51°03' E 002°19'0 0.0
2017-Oct-14 07:57N 51°03' E 002°19'0 0.0
2017-Oct-14 07:24N 51°03' E 002°19'0 0.0
2017-Oct-14 06:57N 51°03' E 002°19'0 0.0
2017-Oct-14 06:30N 51°03' E 002°19'0 0.0
2017-Oct-14 06:00N 51°03' E 002°19'0 0.0
2017-Oct-14 05:30N 51°03' E 002°19'0 0.0
2017-Oct-14 05:00N 51°03' E 002°19'0 0.0
2017-Oct-14 04:24N 51°03' E 002°19'0 0.0
2017-Oct-14 04:00N 51°03' E 002°19'0 0.0
2017-Oct-14 03:30N 51°03' E 002°19'0 0.0
2017-Oct-14 03:00N 51°03' E 002°19'0 0.0
2017-Oct-14 02:30N 51°03' E 002°19'0 0.0
2017-Oct-14 01:54N 51°03' E 002°19'0 0.0
2017-Oct-14 01:27N 51°03' E 002°19'0 0.0
2017-Oct-14 01:00N 51°03' E 002°19'0 0.0
2017-Oct-14 00:30N 51°03' E 002°19'0 0.0
2017-Oct-14 00:00N 51°03' E 002°19'0 0.0
2017-Oct-13 23:30N 51°03' E 002°19'0 0.0
2017-Oct-13 23:00N 51°03' E 002°19'0 0.0
2017-Oct-13 22:30N 51°03' E 002°19'0 0.0
2017-Oct-13 22:00N 51°03' E 002°19'0 0.0
2017-Oct-13 21:30N 51°03' E 002°19'0 0.0
2017-Oct-13 21:00N 51°03' E 002°19'0 0.0
2017-Oct-13 20:30N 51°03' E 002°19'0 0.0
2017-Oct-13 20:00N 51°03' E 002°19'0 0.0
2017-Oct-13 19:30N 51°03' E 002°19'0 0.0
2017-Oct-13 19:00N 51°03' E 002°19'0 0.0
2017-Oct-13 18:30N 51°03' E 002°19'0 0.0
2017-Oct-13 18:00N 51°03' E 002°19'0 0.0
2017-Oct-13 17:24N 51°03' E 002°19'0 0.0
2017-Oct-13 16:51N 51°03' E 002°19'0 0.0
2017-Oct-13 16:27N 51°03' E 002°19'0 0.0
2017-Oct-13 16:00N 51°03' E 002°19'0 0.0
2017-Oct-13 15:24N 51°03' E 002°19'0 0.0
2017-Oct-13 14:57N 51°03' E 002°19'0 0.0
2017-Oct-13 14:30N 51°03' E 002°19'0 0.0
2017-Oct-13 14:00N 51°03' E 002°19'0 0.0
2017-Oct-13 13:30N 51°03' E 002°19'0 0.0
2017-Oct-13 12:57N 51°03' E 002°19'0 0.0
2017-Oct-13 12:30N 51°03' E 002°19'0 0.0
2017-Oct-13 11:57N 51°03' E 002°19'0 0.0
2017-Oct-13 11:30N 51°03' E 002°19'0 0.0
2017-Oct-13 11:00N 51°03' E 002°19'0 0.0
2017-Oct-13 10:30N 51°03' E 002°19'0 0.0
2017-Oct-13 10:00N 51°03' E 002°19'0 0.0
2017-Oct-13 09:30N 51°03' E 002°19'0 0.0
2017-Oct-13 09:00N 51°03' E 002°19'0 0.0
2017-Oct-13 08:24N 51°03' E 002°19'0 0.0
2017-Oct-13 07:54N 51°03' E 002°19'0 0.0
2017-Oct-13 07:30N 51°03' E 002°19'0 0.0
2017-Oct-13 06:57N 51°03' E 002°19'0 0.0
2017-Oct-13 06:27N 51°03' E 002°19'0 0.0
2017-Oct-13 06:00N 51°03' E 002°19'0 0.0
2017-Oct-13 05:30N 51°03' E 002°19'0 0.0
2017-Oct-13 04:57N 51°03' E 002°19'0 0.0
2017-Oct-13 04:30N 51°03' E 002°19'0 0.0
2017-Oct-13 04:00N 51°03' E 002°19'0 0.0
2017-Oct-13 03:27N 51°03' E 002°19'0 0.0
2017-Oct-13 03:00N 51°03' E 002°19'0 0.0
2017-Oct-13 02:30N 51°03' E 002°19'0 0.0
2017-Oct-13 02:00N 51°03' E 002°19'0 0.0
2017-Oct-13 01:30N 51°03' E 002°19'0 0.0
2017-Oct-13 01:00N 51°03' E 002°19'0 0.0
2017-Oct-13 00:27N 51°03' E 002°19'0 0.0
2017-Oct-13 00:00N 51°03' E 002°19'0 0.0
2017-Oct-12 23:27N 51°03' E 002°19'0 0.0
2017-Oct-12 23:00N 51°03' E 002°19'0 0.0
2017-Oct-12 22:30N 51°03' E 002°19'0 0.0
2017-Oct-12 21:57N 51°03' E 002°19'0 0.0
2017-Oct-12 21:30N 51°03' E 002°19'0 0.0
2017-Oct-12 21:00N 51°03' E 002°19'0 0.0
2017-Oct-12 20:27N 51°03' E 002°19'0 0.0
2017-Oct-12 19:57N 51°03' E 002°19'0 0.0
2017-Oct-12 19:27N 51°03' E 002°19'0 0.0
2017-Oct-12 18:36N 51°03' E 002°19'0 0.0
2017-Oct-12 18:30N 51°03' E 002°19'0 0.0
2017-Oct-12 18:00N 51°03' E 002°19'0 0.0
2017-Oct-12 17:24N 51°03' E 002°19'0 0.0
2017-Oct-12 16:57N 51°03' E 002°19'0 0.0
2017-Oct-12 16:30N 51°03' E 002°19'0 0.0
2017-Oct-12 15:48N 51°03' E 002°19'0 0.0
2017-Oct-12 15:24N 51°03' E 002°19'0 0.0
2017-Oct-12 14:45N 51°03' E 002°19'0 0.0
2017-Oct-12 14:30N 51°03' E 002°19'0 0.0
2017-Oct-12 13:54N 51°03' E 002°19'0 0.0
2017-Oct-12 13:21N 51°03' E 002°19'0 0.0
2017-Oct-12 12:54N 51°03' E 002°19'0 0.0
2017-Oct-12 12:30N 51°03' E 002°19'0 0.0
2017-Oct-12 12:00N 51°03' E 002°19'0 0.0
2017-Oct-12 11:30N 51°03' E 002°19'0 0.0
2017-Oct-12 10:54N 51°03' E 002°19'0 0.0
2017-Oct-12 10:30N 51°03' E 002°19'0 0.0
2017-Oct-12 09:51N 51°03' E 002°19'0 0.0
2017-Oct-12 09:30N 51°03' E 002°19'0 0.0
2017-Oct-12 08:57N 51°03' E 002°19'0 0.0
2017-Oct-12 08:30N 51°03' E 002°19'0 0.0
2017-Oct-12 08:00N 51°03' E 002°19'0 0.0
2017-Oct-12 07:30N 51°03' E 002°19'0 0.3
2017-Oct-12 07:00N 51°03' E 002°19'1 2.0
2017-Oct-12 06:29N 51°03' E 002°21'0 0.1
2017-Oct-12 06:00N 51°03' E 002°21'1 2.4
2017-Oct-12 05:25N 51°04' E 002°19'511.8
2017-Oct-12 04:59N 51°03' E 002°11'613.3
2017-Oct-12 04:30N 51°03' E 002°01'713.1
2017-Oct-12 04:00N 51°02' E 001°50'2 3.8
2017-Oct-12 03:30N 51°02' E 001°47'1 2.7
2017-Oct-12 03:00N 51°03' E 001°45'3 6.7
2017-Oct-12 02:30N 51°02' E 001°40'5 9.5
2017-Oct-12 02:00N 50°59' E 001°34'5 9.2
2017-Oct-12 01:30N 50°56' E 001°29'4 8.4
2017-Oct-12 01:00N 50°52' E 001°26'510.5
2017-Oct-12 00:30N 50°47' E 001°23'4810.4
2017-Oct-11 19:50N 50°23' E 000°17'510.6
2017-Oct-11 19:20N 50°21' E 000°09'310.6
2017-Oct-11 19:00N 50°20' E 000°04'510.6
2017-Oct-11 18:30N 50°19' W 000°04'610.4
2017-Oct-11 17:53N 50°17' W 000°14'410.3
2017-Oct-11 17:30N 50°16' W 000°20'21312.0
2017-Oct-10 23:46N 49°40' W 005°46'411.2
2017-Oct-10 23:26N 49°39' W 005°52'  
Track history (hours):
 
Tides and Currents Weather Stations Pressure Air Temp Water Temp Dewpoint Dewpoint Depression Visibility Wind Speed Wind Dir Waves Ship Positions

Am Express

Last reported at 2017-Oct-16 08:20 UTC. Time now 2017-Oct-19 23:44 UTC.
Position N 49°29' W 004°31'.

Length 222 m; draft 8.8 m.

Type: Cargo ship. MMSI: 477655300.

Date/timePositionNaut miles runAvg speedWind from/ knotsBaromVisibWave heightAir tempDewpointWater temp
2017-Oct-16 08:20N 49°29' W 004°31'411.7
2017-Oct-16 08:00N 49°31' W 004°26'711.8
2017-Oct-16 07:27N 49°34' W 004°17'511.9
2017-Oct-16 06:59N 49°36' W 004°09'611.8
2017-Oct-16 06:29N 49°39' W 004°01'611.8
2017-Oct-16 06:00N 49°42' W 003°53'611.9
2017-Oct-16 05:30N 49°44' W 003°45'611.8
2017-Oct-16 05:00N 49°47' W 003°37'611.4
2017-Oct-16 04:30N 49°49' W 003°29'611.5
2017-Oct-16 04:00N 49°52' W 003°21'611.4
2017-Oct-16 03:31N 49°54' W 003°13'611.3
2017-Oct-16 03:00N 49°57' W 003°05'611.4
2017-Oct-16 02:30N 49°59' W 002°57'612.1
2017-Oct-16 02:00N 50°00' W 002°47'612.6
2017-Oct-16 01:30N 50°02' W 002°38'713.1
2017-Oct-16 01:00N 50°04' W 002°28'713.7
2017-Oct-16 00:30N 50°05' W 002°18'714.3
2017-Oct-16 00:00N 50°07' W 002°07'714.6
2017-Oct-15 23:30N 50°09' W 001°56'3214.6
2017-Oct-15 21:20N 50°18' W 001°08'513.8
2017-Oct-15 21:00N 50°18' W 001°01'613.1
2017-Oct-15 20:31N 50°20' W 000°52'612.4
2017-Oct-15 20:00N 50°22' W 000°42'712.0
2017-Oct-15 19:25N 50°25' W 000°32'511.9
2017-Oct-15 19:01N 50°26' W 000°25'611.7
2017-Oct-15 18:30N 50°27' W 000°16'611.5
2017-Oct-15 18:00N 50°29' W 000°07'611.2
2017-Oct-15 17:30N 50°30' E 000°02'511.0
2017-Oct-15 17:00N 50°32' E 000°10'611.1
2017-Oct-15 16:30N 50°33' E 000°18'611.4
2017-Oct-15 16:00N 50°35' E 000°27'611.7
2017-Oct-15 15:30N 50°37' E 000°35'612.4
2017-Oct-15 15:00N 50°41' E 000°43'1312.8
2017-Oct-15 14:00N 50°49' E 000°59'612.8
2017-Oct-15 13:30N 50°53' E 001°06'612.6
2017-Oct-15 13:00N 50°57' E 001°14'612.3
2017-Oct-15 12:30N 51°01' E 001°21'611.9
2017-Oct-15 12:00N 51°05' E 001°29'510.9
2017-Oct-15 11:30N 51°07' E 001°37'611.9
2017-Oct-15 11:00N 51°04' E 001°45'510.4
2017-Oct-15 10:30N 51°02' E 001°53'510.1
2017-Oct-15 10:00N 51°03' E 002°01'510.4
2017-Oct-15 09:30N 51°03' E 002°09'510.3
2017-Oct-15 09:00N 51°04' E 002°17'2 4.2
2017-Oct-15 08:30N 51°03' E 002°20'0 0.1
2017-Oct-15 08:00N 51°03' E 002°20'1 1.5
2017-Oct-15 07:30N 51°03' E 002°19'0 0.5
2017-Oct-15 07:00N 51°03' E 002°19'0 0.0
2017-Oct-15 06:30N 51°03' E 002°19'0 0.0
2017-Oct-15 06:00N 51°03' E 002°19'0 0.0
2017-Oct-15 05:30N 51°03' E 002°19'0 0.0
2017-Oct-15 05:00N 51°03' E 002°19'0 0.0
2017-Oct-15 04:30N 51°03' E 002°19'0 0.0
2017-Oct-15 04:00N 51°03' E 002°19'0 0.0
2017-Oct-15 03:30N 51°03' E 002°19'0 0.0
2017-Oct-15 03:00N 51°03' E 002°19'0 0.0
2017-Oct-15 02:30N 51°03' E 002°19'0 0.0
2017-Oct-15 02:00N 51°03' E 002°19'0 0.0
2017-Oct-15 01:21N 51°03' E 002°19'0 0.0
2017-Oct-15 01:00N 51°03' E 002°19'0 0.0
2017-Oct-15 00:27N 51°03' E 002°19'0 0.0
2017-Oct-15 00:00N 51°03' E 002°19'0 0.0
2017-Oct-14 23:30N 51°03' E 002°19'0 0.0
2017-Oct-14 23:00N 51°03' E 002°19'0 0.0
2017-Oct-14 22:30N 51°03' E 002°19'0 0.0
2017-Oct-14 22:00N 51°03' E 002°19'0 0.0
2017-Oct-14 21:30N 51°03' E 002°19'0 0.0
2017-Oct-14 21:00N 51°03' E 002°19'0 0.0
2017-Oct-14 20:30N 51°03' E 002°19'0 0.0
2017-Oct-14 20:00N 51°03' E 002°19'0 0.0
2017-Oct-14 19:27N 51°03' E 002°19'0 0.0
2017-Oct-14 19:00N 51°03' E 002°19'0 0.0
2017-Oct-14 18:30N 51°03' E 002°19'0 0.0
2017-Oct-14 18:00N 51°03' E 002°19'0 0.0
2017-Oct-14 17:30N 51°03' E 002°19'0 0.0
2017-Oct-14 17:00N 51°03' E 002°19'0 0.0
2017-Oct-14 16:27N 51°03' E 002°19'0 0.0
2017-Oct-14 16:00N 51°03' E 002°19'0 0.0
2017-Oct-14 15:30N 51°03' E 002°19'0 0.0
2017-Oct-14 15:00N 51°03' E 002°19'0 0.0
2017-Oct-14 14:30N 51°03' E 002°19'0 0.0
2017-Oct-14 14:00N 51°03' E 002°19'0 0.0
2017-Oct-14 13:30N 51°03' E 002°19'0 0.0
2017-Oct-14 13:00N 51°03' E 002°19'0 0.0
2017-Oct-14 12:30N 51°03' E 002°19'0 0.0
2017-Oct-14 12:00N 51°03' E 002°19'0 0.0
2017-Oct-14 11:27N 51°03' E 002°19'0 0.0
2017-Oct-14 11:00N 51°03' E 002°19'0 0.0
2017-Oct-14 10:27N 51°03' E 002°19'0 0.0
2017-Oct-14 10:00N 51°03' E 002°19'0 0.0
2017-Oct-14 09:24N 51°03' E 002°19'0 0.0
2017-Oct-14 08:57N 51°03' E 002°19'0 0.0
2017-Oct-14 08:27N 51°03' E 002°19'0 0.0
2017-Oct-14 07:57N 51°03' E 002°19'0 0.0
2017-Oct-14 07:24N 51°03' E 002°19'0 0.0
2017-Oct-14 06:57N 51°03' E 002°19'0 0.0
2017-Oct-14 06:30N 51°03' E 002°19'0 0.0
2017-Oct-14 06:00N 51°03' E 002°19'0 0.0
2017-Oct-14 05:30N 51°03' E 002°19'0 0.0
2017-Oct-14 05:00N 51°03' E 002°19'0 0.0
2017-Oct-14 04:24N 51°03' E 002°19'0 0.0
2017-Oct-14 04:00N 51°03' E 002°19'0 0.0
2017-Oct-14 03:30N 51°03' E 002°19'0 0.0
2017-Oct-14 03:00N 51°03' E 002°19'0 0.0
2017-Oct-14 02:30N 51°03' E 002°19'0 0.0
2017-Oct-14 01:54N 51°03' E 002°19'0 0.0
2017-Oct-14 01:27N 51°03' E 002°19'0 0.0
2017-Oct-14 01:00N 51°03' E 002°19'0 0.0
2017-Oct-14 00:30N 51°03' E 002°19'0 0.0
2017-Oct-14 00:00N 51°03' E 002°19'0 0.0
2017-Oct-13 23:30N 51°03' E 002°19'0 0.0
2017-Oct-13 23:00N 51°03' E 002°19'0 0.0
2017-Oct-13 22:30N 51°03' E 002°19'0 0.0
2017-Oct-13 22:00N 51°03' E 002°19'0 0.0
2017-Oct-13 21:30N 51°03' E 002°19'0 0.0
2017-Oct-13 21:00N 51°03' E 002°19'0 0.0
2017-Oct-13 20:30N 51°03' E 002°19'0 0.0
2017-Oct-13 20:00N 51°03' E 002°19'0 0.0
2017-Oct-13 19:30N 51°03' E 002°19'0 0.0
2017-Oct-13 19:00N 51°03' E 002°19'0 0.0
2017-Oct-13 18:30N 51°03' E 002°19'0 0.0
2017-Oct-13 18:00N 51°03' E 002°19'0 0.0
2017-Oct-13 17:24N 51°03' E 002°19'0 0.0
2017-Oct-13 16:51N 51°03' E 002°19'0 0.0
2017-Oct-13 16:27N 51°03' E 002°19'0 0.0
2017-Oct-13 16:00N 51°03' E 002°19'0 0.0
2017-Oct-13 15:24N 51°03' E 002°19'0 0.0
2017-Oct-13 14:57N 51°03' E 002°19'0 0.0
2017-Oct-13 14:30N 51°03' E 002°19'0 0.0
2017-Oct-13 14:00N 51°03' E 002°19'0 0.0
2017-Oct-13 13:30N 51°03' E 002°19'0 0.0
2017-Oct-13 12:57N 51°03' E 002°19'0 0.0
2017-Oct-13 12:30N 51°03' E 002°19'0 0.0
2017-Oct-13 11:57N 51°03' E 002°19'0 0.0
2017-Oct-13 11:30N 51°03' E 002°19'0 0.0
2017-Oct-13 11:00N 51°03' E 002°19'0 0.0
2017-Oct-13 10:30N 51°03' E 002°19'0 0.0
2017-Oct-13 10:00N 51°03' E 002°19'0 0.0
2017-Oct-13 09:30N 51°03' E 002°19'0 0.0
2017-Oct-13 09:00N 51°03' E 002°19'0 0.0
2017-Oct-13 08:24N 51°03' E 002°19'0 0.0
2017-Oct-13 07:54N 51°03' E 002°19'0 0.0
2017-Oct-13 07:30N 51°03' E 002°19'0 0.0
2017-Oct-13 06:57N 51°03' E 002°19'0 0.0
2017-Oct-13 06:27N 51°03' E 002°19'0 0.0
2017-Oct-13 06:00N 51°03' E 002°19'0 0.0
2017-Oct-13 05:30N 51°03' E 002°19'0 0.0
2017-Oct-13 04:57N 51°03' E 002°19'0 0.0
2017-Oct-13 04:30N 51°03' E 002°19'0 0.0
2017-Oct-13 04:00N 51°03' E 002°19'0 0.0
2017-Oct-13 03:27N 51°03' E 002°19'0 0.0
2017-Oct-13 03:00N 51°03' E 002°19'0 0.0
2017-Oct-13 02:30N 51°03' E 002°19'0 0.0
2017-Oct-13 02:00N 51°03' E 002°19'0 0.0
2017-Oct-13 01:30N 51°03' E 002°19'0 0.0
2017-Oct-13 01:00N 51°03' E 002°19'0 0.0
2017-Oct-13 00:27N 51°03' E 002°19'0 0.0
2017-Oct-13 00:00N 51°03' E 002°19'0 0.0
2017-Oct-12 23:27N 51°03' E 002°19'0 0.0
2017-Oct-12 23:00N 51°03' E 002°19'0 0.0
2017-Oct-12 22:30N 51°03' E 002°19'0 0.0
2017-Oct-12 21:57N 51°03' E 002°19'0 0.0
2017-Oct-12 21:30N 51°03' E 002°19'0 0.0
2017-Oct-12 21:00N 51°03' E 002°19'0 0.0
2017-Oct-12 20:27N 51°03' E 002°19'0 0.0
2017-Oct-12 19:57N 51°03' E 002°19'0 0.0
2017-Oct-12 19:27N 51°03' E 002°19'0 0.0
2017-Oct-12 18:36N 51°03' E 002°19'0 0.0
2017-Oct-12 18:30N 51°03' E 002°19'0 0.0
2017-Oct-12 18:00N 51°03' E 002°19'0 0.0
2017-Oct-12 17:24N 51°03' E 002°19'0 0.0
2017-Oct-12 16:57N 51°03' E 002°19'0 0.0
2017-Oct-12 16:30N 51°03' E 002°19'0 0.0
2017-Oct-12 15:48N 51°03' E 002°19'0 0.0
2017-Oct-12 15:24N 51°03' E 002°19'0 0.0
2017-Oct-12 14:45N 51°03' E 002°19'0 0.0
2017-Oct-12 14:30N 51°03' E 002°19'0 0.0
2017-Oct-12 13:54N 51°03' E 002°19'0 0.0
2017-Oct-12 13:21N 51°03' E 002°19'0 0.0
2017-Oct-12 12:54N 51°03' E 002°19'0 0.0
2017-Oct-12 12:30N 51°03' E 002°19'0 0.0
2017-Oct-12 12:00N 51°03' E 002°19'0 0.0
2017-Oct-12 11:30N 51°03' E 002°19'0 0.0
2017-Oct-12 10:54N 51°03' E 002°19'0 0.0
2017-Oct-12 10:30N 51°03' E 002°19'0 0.0
2017-Oct-12 09:51N 51°03' E 002°19'0 0.0
2017-Oct-12 09:30N 51°03' E 002°19'0 0.0
2017-Oct-12 08:57N 51°03' E 002°19'0 0.0
2017-Oct-12 08:30N 51°03' E 002°19'0 0.0
2017-Oct-12 08:00N 51°03' E 002°19'0 0.0
2017-Oct-12 07:30N 51°03' E 002°19'0 0.3
2017-Oct-12 07:00N 51°03' E 002°19'1 2.0
2017-Oct-12 06:29N 51°03' E 002°21'0 0.1
2017-Oct-12 06:00N 51°03' E 002°21'1 2.4
2017-Oct-12 05:25N 51°04' E 002°19'511.8
2017-Oct-12 04:59N 51°03' E 002°11'613.3
2017-Oct-12 04:30N 51°03' E 002°01'713.1
2017-Oct-12 04:00N 51°02' E 001°50'2 3.8
2017-Oct-12 03:30N 51°02' E 001°47'1 2.7
2017-Oct-12 03:00N 51°03' E 001°45'3 6.7
2017-Oct-12 02:30N 51°02' E 001°40'5 9.5
2017-Oct-12 02:00N 50°59' E 001°34'5 9.2
2017-Oct-12 01:30N 50°56' E 001°29'4 8.4
2017-Oct-12 01:00N 50°52' E 001°26'510.5
2017-Oct-12 00:30N 50°47' E 001°23'4810.4
2017-Oct-11 19:50N 50°23' E 000°17'510.6
2017-Oct-11 19:20N 50°21' E 000°09'310.6
2017-Oct-11 19:00N 50°20' E 000°04'510.6
2017-Oct-11 18:30N 50°19' W 000°04'610.4
2017-Oct-11 17:53N 50°17' W 000°14'410.3
2017-Oct-11 17:30N 50°16' W 000°20'21312.0
2017-Oct-10 23:46N 49°40' W 005°46'411.2
2017-Oct-10 23:26N 49°39' W 005°52'  

Dump ship's entire track history